Time;durP1;ratioP1;P1;durP2;ratioP2;P2;SDS_P1;SDS_P2;PMS_P1;PMS_P2;Temp;Humidity;BMP_temperature;BMP_pressure;BME280_temperature;BME280_humidity;BME280_pressure;Samples;Min_cycle;Max_cycle;Signal;HPM_P1;HPM_P2
2023/02/23 00:01:43;;;;;;;5.17;3.33;;;8.00;76.70;;;;;;5050863;28;20201;-75
2023/02/23 00:04:09;;;;;;;6.40;3.40;;;8.00;76.40;;;;;;5054946;28;20191;-75
2023/02/23 00:06:36;;;;;;;3.13;2.70;;;8.00;76.70;;;;;;5053213;28;20206;-75
2023/02/23 00:09:13;;;;;;;5.17;2.93;;;7.90;76.60;;;;;;5055795;28;20186;-76
2023/02/23 00:11:39;;;;;;;2.73;2.53;;;7.90;76.60;;;;;;5045903;28;20235;-76
2023/02/23 00:14:07;;;;;;;6.60;2.97;;;7.90;76.90;;;;;;5050487;28;20211;-75
2023/02/23 00:16:32;;;;;;;2.03;1.90;;;7.90;77.20;;;;;;5048640;28;20183;-76
2023/02/23 00:19:01;;;;;;;2.87;2.67;;;7.80;77.20;;;;;;5051066;28;20183;-76
2023/02/23 00:21:31;;;;;;;2.83;2.40;;;7.80;77.20;;;;;;5050389;28;20200;-75
2023/02/23 00:24:03;;;;;;;3.13;2.10;;;7.70;77.20;;;;;;5054560;28;20185;-76
2023/02/23 00:26:33;;;;;;;2.67;2.47;;;7.70;77.30;;;;;;5055158;28;20183;-74
2023/02/23 00:29:01;;;;;;;4.77;2.77;;;7.60;77.30;;;;;;5050042;28;20567;-75
2023/02/23 00:31:27;;;;;;;2.73;2.53;;;7.60;76.90;;;;;;5051403;28;20211;-76
2023/02/23 00:33:58;;;;;;;5.23;3.80;;;7.60;77.50;;;;;;5048231;28;20267;-75
2023/02/23 00:36:27;;;;;;;3.53;3.23;;;7.50;78.00;;;;;;5047630;28;20224;-75
2023/02/23 00:39:01;;;;;;;3.33;3.10;;;7.50;77.90;;;;;;5052003;28;20572;-75
2023/02/23 00:41:28;;;;;;;4.83;3.70;;;7.50;77.90;;;;;;5044996;28;20610;-75
2023/02/23 00:43:56;;;;;;;7.33;4.90;;;7.50;78.00;;;;;;5046157;28;20573;-76
2023/02/23 00:46:26;;;;;;;7.00;5.33;;;7.50;78.00;;;;;;5050227;28;20184;-75
2023/02/23 00:48:54;;;;;;;10.00;5.67;;;7.50;78.30;;;;;;5052203;28;20183;-76
2023/02/23 00:51:20;;;;;;;15.80;5.93;;;7.50;78.50;;;;;;5049180;28;20218;-75
2023/02/23 00:53:46;;;;;;;6.93;5.50;;;7.50;78.50;;;;;;5046528;28;20175;-75
2023/02/23 00:56:14;;;;;;;9.17;4.93;;;7.40;78.50;;;;;;5050722;28;20708;-75
2023/02/23 00:58:40;;;;;;;7.13;6.10;;;7.40;78.60;;;;;;5048196;28;20226;-75
2023/02/23 01:01:08;;;;;;;7.83;5.63;;;7.40;78.80;;;;;;5048927;28;20191;-75
2023/02/23 01:03:34;;;;;;;8.67;5.60;;;7.40;78.80;;;;;;5047253;28;20194;-75
2023/02/23 01:06:04;;;;;;;9.07;5.87;;;7.40;78.70;;;;;;5053924;28;21703;-75
2023/02/23 01:08:33;;;;;;;8.77;5.40;;;7.40;78.60;;;;;;5040317;28;20307;-75
2023/02/23 01:11:04;;;;;;;8.73;5.47;;;7.40;78.70;;;;;;5051212;28;20218;-75
2023/02/23 01:13:30;;;;;;;9.73;5.90;;;7.30;78.70;;;;;;5052135;28;20187;-75
2023/02/23 01:15:56;;;;;;;10.20;6.43;;;7.30;78.60;;;;;;5052028;28;20794;-75
2023/02/23 01:18:21;;;;;;;9.87;7.63;;;7.30;78.80;;;;;;5045103;28;20287;-75
2023/02/23 01:20:49;;;;;;;17.53;7.53;;;7.30;78.70;;;;;;5052334;28;20171;-75
2023/02/23 01:23:15;;;;;;;12.30;8.80;;;7.30;79.00;;;;;;5050081;28;20184;-75
2023/02/23 01:25:43;;;;;;;16.17;9.00;;;7.30;79.10;;;;;;5053288;28;20189;-75
2023/02/23 01:28:10;;;;;;;14.53;7.97;;;7.20;78.90;;;;;;5049506;28;20677;-75
2023/02/23 01:30:37;;;;;;;16.77;9.20;;;7.20;79.30;;;;;;5051420;28;20182;-75
2023/02/23 01:33:03;;;;;;;18.57;8.80;;;7.20;79.30;;;;;;5051455;28;20226;-75
2023/02/23 01:35:29;;;;;;;15.63;9.37;;;7.20;79.50;;;;;;5053020;28;20204;-75
2023/02/23 01:37:54;;;;;;;13.20;8.70;;;7.10;79.60;;;;;;5051776;28;20186;-75
2023/02/23 01:40:28;;;;;;;16.50;8.73;;;7.10;79.70;;;;;;5047683;28;20210;-75
2023/02/23 01:43:24;;;;;;;15.17;8.13;;;7.10;79.60;;;;;;5050606;28;20577;-76
2023/02/23 01:45:54;;;;;;;12.63;7.63;;;7.10;80.00;;;;;;5049777;28;20655;-76
2023/02/23 01:48:26;;;;;;;11.27;7.60;;;7.00;80.30;;;;;;5056399;28;20246;-76
2023/02/23 01:50:59;;;;;;;14.93;7.10;;;6.90;80.20;;;;;;5052107;28;20183;-76
2023/02/23 01:53:27;;;;;;;9.23;6.87;;;6.90;80.10;;;;;;5053269;28;20171;-75
2023/02/23 01:56:00;;;;;;;10.37;6.60;;;6.90;80.20;;;;;;5048100;28;20175;-76
2023/02/23 01:58:27;;;;;;;7.97;5.37;;;6.90;79.80;;;;;;5051969;28;20188;-74
2023/02/23 02:00:56;;;;;;;9.33;6.40;;;6.90;80.20;;;;;;5050159;28;20183;-76
2023/02/23 02:03:36;;;;;;;9.80;5.60;;;6.90;80.00;;;;;;5046675;28;20623;-75
2023/02/23 02:06:06;;;;;;;7.70;4.63;;;6.80;79.90;;;;;;5050045;28;20258;-75
2023/02/23 02:08:34;;;;;;;6.53;5.03;;;6.90;80.20;;;;;;5053117;28;20263;-75
2023/02/23 02:10:59;;;;;;;5.63;5.03;;;6.80;80.20;;;;;;5054896;28;20207;-75
2023/02/23 02:13:31;;;;;;;9.17;4.53;;;6.80;79.90;;;;;;5054067;28;20684;-75
2023/02/23 02:16:17;;;;;;;7.43;5.13;;;6.80;79.90;;;;;;5056018;28;20617;-75
2023/02/23 02:19:17;;;;;;;4.43;3.70;;;6.80;79.80;;;;;;5052664;28;20187;-75
2023/02/23 02:22:17;;;;;;;7.43;4.13;;;6.80;79.70;;;;;;5051423;28;20241;-75
2023/02/23 02:25:11;;;;;;;7.30;4.60;;;6.80;79.60;;;;;;5053543;28;20299;-75
2023/02/23 02:27:56;;;;;;;5.50;4.13;;;6.80;79.60;;;;;;5051737;28;20184;-75
2023/02/23 02:30:51;;;;;;;5.37;4.00;;;6.70;79.50;;;;;;5056749;28;20195;-75
2023/02/23 02:33:31;;;;;;;8.10;4.37;;;6.70;79.70;;;;;;5053542;28;20191;-75
2023/02/23 02:36:18;;;;;;;6.13;4.23;;;6.70;79.70;;;;;;5048486;28;20186;-74
2023/02/23 02:39:09;;;;;;;7.17;4.10;;;6.70;79.90;;;;;;5054054;28;20194;-75
2023/02/23 02:41:57;;;;;;;8.70;5.67;;;6.70;80.10;;;;;;5049405;28;20265;-75
2023/02/23 02:44:37;;;;;;;10.97;6.00;;;6.70;80.00;;;;;;5052402;28;20187;-75
2023/02/23 02:47:15;;;;;;;10.20;5.73;;;6.70;80.10;;;;;;5054520;28;20249;-75
2023/02/23 02:49:58;;;;;;;11.07;6.40;;;6.70;80.20;;;;;;5054262;28;20602;-75
2023/02/23 02:52:46;;;;;;;10.47;6.37;;;6.60;80.20;;;;;;5056187;28;20215;-75
2023/02/23 02:55:22;;;;;;;10.10;6.47;;;6.60;80.40;;;;;;5055839;28;20236;-75
2023/02/23 02:57:51;;;;;;;10.20;6.03;;;6.60;80.50;;;;;;5055344;28;20183;-75
2023/02/23 04:18:29;;;;;;;8.00;4.20;;;5.70;83.80;;;;;;5048921;28;20191;-75
2023/02/23 04:20:56;;;;;;;6.77;4.00;;;5.70;83.80;;;;;;5052307;28;20542;-75
2023/02/23 04:23:22;;;;;;;3.77;3.40;;;5.70;83.80;;;;;;5053049;28;20270;-75
2023/02/23 04:25:49;;;;;;;3.60;3.37;;;5.60;84.10;;;;;;5049479;28;20890;-75
2023/02/23 04:28:15;;;;;;;4.83;3.63;;;5.60;84.50;;;;;;5054783;28;20187;-76
2023/02/23 04:30:41;;;;;;;6.37;3.87;;;5.60;84.70;;;;;;5052914;28;20195;-75
2023/02/23 04:33:07;;;;;;;9.27;4.60;;;5.60;84.50;;;;;;5046503;28;20669;-75
2023/02/23 04:35:33;;;;;;;5.10;3.87;;;5.50;84.60;;;;;;5044626;28;20279;-75
2023/02/23 04:37:59;;;;;;;5.70;3.27;;;5.60;85.00;;;;;;5051601;28;20188;-74
2023/02/23 04:40:25;;;;;;;5.67;3.40;;;5.50;85.10;;;;;;5054613;28;20190;-75
2023/02/23 04:42:51;;;;;;;5.50;4.10;;;5.50;85.10;;;;;;5046486;28;20262;-75
2023/02/23 04:45:17;;;;;;;6.00;3.93;;;5.50;85.20;;;;;;5044186;28;20188;-75
2023/02/23 04:47:43;;;;;;;5.13;3.87;;;5.50;85.00;;;;;;5046763;28;20180;-75
2023/02/23 04:50:10;;;;;;;4.77;3.33;;;5.50;84.90;;;;;;5046039;28;20195;-75
2023/02/23 04:52:37;;;;;;;5.30;3.63;;;5.40;84.90;;;;;;5048255;28;20276;-76
2023/02/23 04:55:04;;;;;;;4.87;3.40;;;5.40;85.10;;;;;;5047565;28;20186;-75
2023/02/23 04:57:30;;;;;;;6.67;3.93;;;5.40;85.20;;;;;;5047630;28;20252;-76
2023/02/23 04:59:56;;;;;;;4.27;3.97;;;5.40;85.30;;;;;;5047793;28;20629;-75
2023/02/23 05:02:22;;;;;;;6.50;3.73;;;5.40;85.20;;;;;;5045638;28;20688;-77
2023/02/23 05:04:47;;;;;;;5.63;4.00;;;5.40;85.30;;;;;;5047013;28;20188;-77
2023/02/23 05:07:13;;;;;;;4.00;3.50;;;5.40;85.30;;;;;;5047552;28;20195;-77
2023/02/23 05:09:39;;;;;;;5.77;3.87;;;5.40;85.30;;;;;;5051922;28;20184;-78
2023/02/23 05:12:04;;;;;;;6.67;4.03;;;5.40;85.40;;;;;;5047382;28;20285;-76
2023/02/23 05:14:30;;;;;;;6.70;4.10;;;5.40;85.60;;;;;;5052526;28;20189;-77
2023/02/23 05:16:56;;;;;;;5.57;3.70;;;5.40;85.50;;;;;;5035964;28;20229;-77
2023/02/23 05:19:21;;;;;;;5.80;4.07;;;5.40;85.60;;;;;;5041470;28;20820;-77
2023/02/23 05:21:49;;;;;;;4.93;3.93;;;5.30;85.60;;;;;;5046794;28;20179;-75
2023/02/23 05:24:16;;;;;;;4.37;3.70;;;5.40;85.60;;;;;;5048771;28;20187;-77
2023/02/23 05:26:42;;;;;;;10.00;4.70;;;5.40;85.50;;;;;;5051427;28;20200;-77
2023/02/23 05:29:08;;;;;;;5.87;4.73;;;5.40;85.50;;;;;;5048591;28;20183;-77
2023/02/23 05:31:34;;;;;;;13.00;5.33;;;5.40;85.50;;;;;;5052780;28;20276;-77
2023/02/23 05:34:00;;;;;;;10.57;6.17;;;5.40;85.30;;;;;;5051608;28;20555;-77
2023/02/23 05:36:26;;;;;;;15.80;5.80;;;5.40;85.10;;;;;;5048835;28;20213;-77
2023/02/23 05:38:51;;;;;;;11.60;5.50;;;5.40;84.90;;;;;;5045978;28;20183;-79
2023/02/23 05:41:23;;;;;;;9.13;6.00;;;5.40;84.90;;;;;;5043847;28;20210;-76
2023/02/23 05:43:52;;;;;;;10.23;6.10;;;5.40;84.70;;;;;;5047777;28;20260;-76
2023/02/23 05:46:22;;;;;;;13.27;6.60;;;5.40;84.60;;;;;;5047617;28;20175;-78
2023/02/23 05:48:47;;;;;;;9.50;6.07;;;5.30;84.80;;;;;;5041449;28;20260;-77
2023/02/23 05:51:15;;;;;;;12.17;6.23;;;5.30;84.90;;;;;;5046212;28;20298;-75
2023/02/23 05:53:41;;;;;;;6.60;5.63;;;5.30;84.80;;;;;;5041250;28;20331;-76
2023/02/23 05:56:10;;;;;;;8.47;5.97;;;5.40;84.80;;;;;;5044876;28;20262;-75
2023/02/23 05:58:36;;;;;;;15.47;6.63;;;5.40;84.80;;;;;;5044480;28;20183;-76
2023/02/23 06:01:02;;;;;;;10.60;5.60;;;5.40;84.80;;;;;;5049564;28;20180;-76
2023/02/23 06:03:28;;;;;;;8.03;5.63;;;5.40;84.70;;;;;;5047191;28;20257;-76
2023/02/23 06:05:57;;;;;;;10.77;5.93;;;5.50;84.60;;;;;;5048593;28;20266;-76
2023/02/23 06:08:25;;;;;;;7.90;5.93;;;5.50;84.50;;;;;;5043783;28;20195;-78
2023/02/23 06:10:51;;;;;;;8.83;5.40;;;5.50;84.20;;;;;;5051796;28;20184;-78
2023/02/23 06:13:17;;;;;;;16.53;6.97;;;5.50;84.50;;;;;;5049505;28;20215;-78
2023/02/23 06:15:43;;;;;;;13.30;5.63;;;5.60;84.40;;;;;;5050958;28;20179;-78
2023/02/23 06:18:09;;;;;;;11.67;6.93;;;5.60;84.40;;;;;;5050086;28;20183;-78
2023/02/23 06:20:35;;;;;;;12.43;6.53;;;5.60;84.60;;;;;;5052163;28;20179;-79
2023/02/23 06:23:02;;;;;;;10.93;6.77;;;5.60;84.60;;;;;;5049966;28;20192;-78
2023/02/23 06:25:27;;;;;;;15.00;6.57;;;5.70;84.70;;;;;;5050011;28;20320;-78
2023/02/23 06:27:53;;;;;;;11.87;7.13;;;5.70;84.50;;;;;;5052407;28;20262;-78
2023/02/23 06:30:19;;;;;;;9.67;6.30;;;5.80;84.50;;;;;;5049497;28;20186;-78
2023/02/23 06:32:45;;;;;;;9.17;5.50;;;5.80;84.30;;;;;;5052138;28;20214;-78
2023/02/23 06:35:10;;;;;;;14.67;6.13;;;5.90;84.40;;;;;;5051098;28;20194;-78
2023/02/23 06:37:36;;;;;;;8.20;6.33;;;5.90;84.40;;;;;;5048918;28;20194;-79
2023/02/23 06:40:03;;;;;;;9.47;5.57;;;6.00;84.30;;;;;;5054073;28;20210;-79
2023/02/23 06:42:29;;;;;;;8.63;5.90;;;6.10;84.20;;;;;;5048775;28;20184;-79
2023/02/23 06:44:55;;;;;;;11.47;6.50;;;6.20;83.70;;;;;;5052033;28;20186;-79
2023/02/23 06:47:20;;;;;;;10.37;5.47;;;6.30;84.00;;;;;;5052112;28;20246;-78
2023/02/23 06:49:46;;;;;;;9.77;6.17;;;6.30;84.10;;;;;;5056459;28;20184;-78
2023/02/23 06:52:13;;;;;;;13.47;5.30;;;6.40;84.20;;;;;;5050849;28;20215;-78
2023/02/23 06:54:40;;;;;;;12.70;6.03;;;6.50;83.80;;;;;;5053378;28;20683;-77
2023/02/23 06:57:09;;;;;;;7.77;5.73;;;6.60;83.10;;;;;;5057321;28;20224;-78
2023/02/23 06:59:35;;;;;;;6.47;5.00;;;6.70;83.30;;;;;;5053642;28;20187;-78
2023/02/23 07:02:04;;;;;;;5.13;4.47;;;6.80;83.30;;;;;;5049979;28;20241;-78
2023/02/23 07:04:30;;;;;;;5.90;4.07;;;6.90;82.50;;;;;;5054052;28;20262;-78
2023/02/23 07:06:56;;;;;;;4.10;3.80;;;7.00;81.80;;;;;;5050608;28;20282;-78
2023/02/23 07:09:21;;;;;;;5.30;4.40;;;7.10;82.10;;;;;;5053598;28;20258;-78
2023/02/23 07:11:47;;;;;;;4.33;3.93;;;7.10;82.10;;;;;;5052268;28;20739;-78
2023/02/23 07:14:13;;;;;;;4.50;4.10;;;7.30;80.80;;;;;;5057628;28;20221;-78
2023/02/23 07:16:38;;;;;;;5.30;4.43;;;7.40;80.10;;;;;;5046619;28;20196;-78
2023/02/23 07:19:05;;;;;;;5.87;5.30;;;7.50;80.10;;;;;;5050156;28;20184;-78
2023/02/23 07:21:32;;;;;;;15.67;5.27;;;7.60;80.30;;;;;;5054696;28;20184;-78
2023/02/23 07:23:59;;;;;;;9.57;6.17;;;7.80;79.80;;;;;;5054782;28;20183;-78
2023/02/23 07:26:25;;;;;;;6.00;4.97;;;7.90;79.80;;;;;;5055324;28;20179;-79
2023/02/23 07:28:51;;;;;;;7.33;5.03;;;8.10;79.60;;;;;;5049889;28;20257;-79
2023/02/23 07:31:17;;;;;;;5.90;4.93;;;8.50;78.60;;;;;;5052125;28;20200;-79
2023/02/23 07:33:43;;;;;;;7.07;5.07;;;9.00;77.60;;;;;;5059233;28;20183;-79
2023/02/23 07:36:09;;;;;;;8.67;4.20;;;9.60;76.00;;;;;;5055825;28;20180;-78
2023/02/23 07:38:35;;;;;;;6.67;4.80;;;10.30;74.70;;;;;;5055530;28;20599;-79
2023/02/23 07:41:02;;;;;;;6.37;4.80;;;11.10;73.60;;;;;;5053301;28;20171;-79
2023/02/23 07:43:28;;;;;;;5.40;4.63;;;12.00;71.70;;;;;;5053346;28;20225;-79
2023/02/23 07:45:57;;;;;;;7.53;5.25;;;12.90;69.70;;;;;;5049524;28;20657;-80
2023/02/23 07:48:23;;;;;;;5.63;4.88;;;13.90;66.90;;;;;;5056233;28;20187;-79
2023/02/23 07:50:48;;;;;;;6.53;5.45;;;14.60;65.20;;;;;;5056575;28;20179;-79
2023/02/23 07:53:14;;;;;;;11.93;5.30;;;15.40;65.10;;;;;;5055392;28;20220;-80
2023/02/23 07:55:40;;;;;;;6.78;5.90;;;16.30;62.20;;;;;;5054190;28;20582;-79
2023/02/23 07:58:06;;;;;;;7.03;5.47;;;17.10;60.10;;;;;;5050797;28;20171;-79
2023/02/23 08:00:33;;;;;;;8.45;5.70;;;17.70;60.20;;;;;;5052339;28;20275;-78
2023/02/23 08:03:00;;;;;;;8.70;6.10;;;18.30;58.60;;;;;;5051764;28;20188;-78
2023/02/23 08:05:26;;;;;;;9.85;6.70;;;19.00;57.60;;;;;;5052068;28;20214;-79
2023/02/23 08:07:53;;;;;;;9.43;7.43;;;19.70;56.90;;;;;;5050171;28;20665;-79
2023/02/23 08:10:19;;;;;;;10.20;6.97;;;20.30;55.00;;;;;;5055022;28;20182;-79
2023/02/23 08:12:44;;;;;;;15.20;8.20;;;20.70;53.90;;;;;;5052003;28;20211;-79
2023/02/23 08:15:10;;;;;;;11.32;8.02;;;21.20;53.20;;;;;;5048863;28;20253;-79
2023/02/23 08:17:37;;;;;;;15.95;8.98;;;21.60;53.40;;;;;;5050526;28;20179;-79
2023/02/23 08:20:03;;;;;;;17.02;10.05;;;22.20;52.10;;;;;;5054277;28;20190;-79
2023/02/23 08:22:29;;;;;;;13.98;9.75;;;22.60;51.50;;;;;;5058354;28;20207;-79
2023/02/23 08:24:55;;;;;;;13.15;9.55;;;23.00;50.30;;;;;;5053482;28;20207;-79
2023/02/23 08:27:20;;;;;;;16.02;10.60;;;23.50;50.70;;;;;;5052410;28;20188;-78
2023/02/23 08:29:46;;;;;;;11.30;9.95;;;23.90;50.00;;;;;;5049765;28;20186;-79
2023/02/23 08:32:12;;;;;;;12.07;9.82;;;24.40;49.60;;;;;;5053638;28;20290;-79
2023/02/23 08:34:43;;;;;;;16.63;9.90;;;24.90;49.00;;;;;;5051483;28;20222;-79
2023/02/23 08:37:09;;;;;;;18.27;10.23;;;25.40;48.40;;;;;;5050048;28;20186;-79
2023/02/23 08:39:35;;;;;;;20.23;11.68;;;25.80;48.00;;;;;;5052418;28;20261;-79
2023/02/23 08:42:01;;;;;;;19.13;12.15;;;26.20;47.40;;;;;;5051482;28;20270;-79
2023/02/23 08:44:27;;;;;;;16.25;10.88;;;26.40;46.00;;;;;;5051963;28;20175;-80
2023/02/23 08:46:54;;;;;;;19.00;11.13;;;26.70;47.30;;;;;;5048947;28;20213;-79
2023/02/23 08:49:23;;;;;;;13.98;10.40;;;27.20;47.10;;;;;;5053081;28;20189;-79
2023/02/23 08:51:49;;;;;;;15.00;10.43;;;27.60;46.10;;;;;;5047129;28;20349;-79
2023/02/23 08:54:15;;;;;;;16.13;11.60;;;27.70;43.80;;;;;;5047072;28;20258;-79
2023/02/23 08:56:42;;;;;;;16.33;11.55;;;27.40;44.80;;;;;;5051157;28;20187;-79
2023/02/23 08:59:08;;;;;;;16.83;10.35;;;27.30;44.80;;;;;;5054335;28;20274;-79
2023/02/23 09:01:34;;;;;;;12.45;10.18;;;27.30;44.80;;;;;;5049733;28;20577;-78
2023/02/23 09:04:00;;;;;;;16.92;10.18;;;27.40;43.50;;;;;;5054713;28;20179;-79
2023/02/23 09:06:26;;;;;;;14.93;10.13;;;27.30;45.10;;;;;;5049652;28;20317;-79
2023/02/23 09:08:54;;;;;;;10.75;9.02;;;27.50;45.30;;;;;;5049593;28;20180;-79
2023/02/23 09:11:20;;;;;;;16.00;9.45;;;28.10;45.00;;;;;;5052410;28;20203;-79
2023/02/23 09:13:46;;;;;;;14.23;9.43;;;28.60;44.80;;;;;;5045925;28;20270;-79
2023/02/23 09:16:12;;;;;;;15.18;9.65;;;29.20;44.30;;;;;;5053750;28;20786;-78
2023/02/23 09:18:38;;;;;;;14.77;9.48;;;29.70;43.30;;;;;;5083679;28;20197;-79
2023/02/23 09:21:06;;;;;;;14.15;10.05;;;30.10;42.60;;;;;;5052994;28;20574;-79
2023/02/23 09:23:32;;;;;;;14.85;9.27;;;30.30;40.90;;;;;;5051632;28;20183;-79
2023/02/23 09:26:03;;;;;;;10.20;9.15;;;29.70;42.10;;;;;;5053698;28;20256;-78
2023/02/23 09:28:29;;;;;;;10.07;8.88;;;29.60;42.90;;;;;;5053664;28;20189;-79
2023/02/23 09:30:55;;;;;;;10.15;8.55;;;29.80;42.10;;;;;;5049185;28;20172;-78
2023/02/23 09:33:21;;;;;;;9.00;7.85;;;30.10;43.00;;;;;;5047129;28;20692;-76
2023/02/23 09:35:46;;;;;;;10.60;7.80;;;30.40;42.10;;;;;;5047626;28;20578;-76
2023/02/23 09:38:12;;;;;;;8.90;8.02;;;30.40;42.50;;;;;;5043977;28;20187;-76
2023/02/23 09:40:47;;;;;;;10.48;6.78;;;30.50;42.50;;;;;;5045893;28;20317;-75
2023/02/23 09:43:36;;;;;;;7.80;6.22;;;30.70;42.00;;;;;;5048465;28;20200;-77
2023/02/23 09:46:28;;;;;;;6.53;5.43;;;31.30;41.30;;;;;;5048752;28;20194;-75
2023/02/23 09:48:57;;;;;;;6.82;6.15;;;31.30;41.30;;;;;;5044298;28;20183;-76
2023/02/23 09:51:24;;;;;;;9.15;6.55;;;31.30;39.80;;;;;;5044524;28;20210;-76
2023/02/23 09:53:54;;;;;;;5.68;5.28;;;31.20;42.10;;;;;;5046258;28;20456;-77
2023/02/23 09:56:36;;;;;;;6.20;5.60;;;31.40;41.60;;;;;;5053901;28;20179;-76
2023/02/23 09:59:10;;;;;;;6.65;5.88;;;31.70;40.50;;;;;;5047925;28;20186;-76
2023/02/23 10:01:47;;;;;;;7.68;6.18;;;32.00;41.50;;;;;;5047892;28;20206;-77
2023/02/23 10:04:29;;;;;;;9.38;6.70;;;32.00;38.90;;;;;;5048141;28;20193;-78
2023/02/23 10:07:09;;;;;;;6.45;5.90;;;31.80;39.70;;;;;;5044093;28;20195;-78
2023/02/23 10:09:37;;;;;;;8.38;6.05;;;31.70;39.50;;;;;;5054760;28;20197;-77
2023/02/23 10:12:12;;;;;;;5.57;5.13;;;31.50;39.10;;;;;;5052095;28;20229;-76
2023/02/23 10:15:21;;;;;;;6.03;5.50;;;31.40;39.60;;;;;;5047862;28;20839;-77
2023/02/23 10:18:02;;;;;;;5.40;4.82;;;31.40;39.60;;;;;;5037341;28;20192;-76
2023/02/23 10:20:54;;;;;;;5.88;4.78;;;31.20;41.40;;;;;;5038772;28;20593;-76
2023/02/23 10:23:28;;;;;;;4.93;4.63;;;31.40;39.40;;;;;;5039673;28;20585;-76
2023/02/23 10:25:58;;;;;;;4.68;4.43;;;31.30;39.70;;;;;;5039473;28;20626;-78
2023/02/23 10:28:25;;;;;;;4.90;4.53;;;31.40;39.80;;;;;;5042045;28;20219;-77
2023/02/23 10:30:54;;;;;;;5.15;4.35;;;31.30;40.40;;;;;;5043283;28;20198;-77
2023/02/23 10:33:24;;;;;;;6.75;4.93;;;31.20;40.40;;;;;;5041959;28;20222;-77
2023/02/23 10:35:56;;;;;;;4.55;4.15;;;31.30;39.70;;;;;;5042084;28;20670;-78
2023/02/23 10:38:22;;;;;;;5.53;5.03;;;31.30;41.00;;;;;;5023981;28;20661;-77
2023/02/23 10:40:54;;;;;;;5.15;4.20;;;31.60;40.90;;;;;;5025130;28;20198;-77
2023/02/23 10:43:19;;;;;;;5.07;4.57;;;31.90;41.20;;;;;;5042149;28;20176;-80
2023/02/23 10:45:50;;;;;;;4.25;3.92;;;32.20;40.20;;;;;;5041598;28;20184;-77
2023/02/23 10:48:21;;;;;;;4.20;3.80;;;32.20;39.70;;;;;;5041408;28;20220;-73
2023/02/23 10:50:49;;;;;;;3.85;3.40;;;32.00;39.60;;;;;;5024611;28;20188;-74
2023/02/23 10:53:20;;;;;;;4.00;3.58;;;32.30;40.40;;;;;;5041531;28;20590;-75
2023/02/23 10:55:58;;;;;;;4.40;4.00;;;32.60;40.10;;;;;;5045507;28;20291;-77
2023/02/23 10:58:24;;;;;;;4.22;3.90;;;33.00;39.60;;;;;;5051538;28;20262;-76
2023/02/23 11:00:56;;;;;;;5.03;4.20;;;33.10;38.10;;;;;;5055265;28;20266;-77
2023/02/23 11:03:32;;;;;;;5.20;4.05;;;33.30;37.80;;;;;;5051502;28;20240;-78
2023/02/23 11:05:58;;;;;;;4.57;4.30;;;33.60;39.00;;;;;;5054713;28;20179;-78
2023/02/23 11:08:30;;;;;;;4.90;4.50;;;33.90;37.80;;;;;;5053155;28;20695;-77
2023/02/23 11:11:02;;;;;;;3.60;3.35;;;33.80;37.10;;;;;;5047842;28;20189;-76
2023/02/23 11:13:41;;;;;;;4.45;4.07;;;33.60;37.60;;;;;;5041292;28;20196;-76
2023/02/23 11:16:16;;;;;;;4.78;4.10;;;33.10;37.90;;;;;;5041399;28;20194;-76
2023/02/23 11:19:01;;;;;;;3.75;3.42;;;32.90;38.80;;;;;;5042189;28;20187;-76
2023/02/23 11:21:32;;;;;;;4.53;3.88;;;32.90;38.60;;;;;;5047569;28;20187;-77
2023/02/23 11:24:15;;;;;;;5.70;4.50;;;33.00;38.90;;;;;;5049947;28;20695;-77
2023/02/23 11:26:43;;;;;;;4.38;3.28;;;33.10;39.10;;;;;;5047304;28;20370;-77
2023/02/23 11:29:35;;;;;;;3.75;3.50;;;33.10;38.90;;;;;;5051993;28;20703;-74
2023/02/23 11:32:08;;;;;;;3.58;3.28;;;32.80;37.90;;;;;;5052329;28;20736;-75
2023/02/23 11:34:39;;;;;;;4.20;3.80;;;32.30;38.90;;;;;;5044813;28;20246;-75
2023/02/23 11:37:20;;;;;;;5.03;3.85;;;32.00;38.70;;;;;;5052424;28;20619;-76
2023/02/23 11:40:00;;;;;;;3.53;3.33;;;31.90;38.70;;;;;;5050681;28;20179;-75
2023/02/23 11:42:31;;;;;;;3.88;3.67;;;31.70;38.50;;;;;;5046773;28;20194;-76
2023/02/23 11:45:25;;;;;;;4.60;4.20;;;31.60;39.30;;;;;;5053564;28;20266;-75
2023/02/23 11:47:54;;;;;;;3.45;2.92;;;31.70;39.80;;;;;;5053520;28;20182;-75
2023/02/23 11:50:32;;;;;;;4.30;3.90;;;32.00;38.60;;;;;;5040357;28;20213;-77
2023/02/23 11:53:12;;;;;;;3.40;3.13;;;32.00;40.00;;;;;;5049054;28;20226;-76
2023/02/23 11:55:39;;;;;;;3.33;3.22;;;32.00;39.80;;;;;;5041458;28;20187;-77
2023/02/23 11:58:29;;;;;;;3.67;3.47;;;32.10;40.00;;;;;;5050110;28;20652;-76
2023/02/23 12:00:57;;;;;;;2.65;2.55;;;31.90;39.70;;;;;;5041134;28;20222;-77
2023/02/23 12:03:25;;;;;;;3.67;3.38;;;31.20;38.90;;;;;;5047468;28;20184;-76
2023/02/23 12:05:56;;;;;;;3.08;2.83;;;30.80;39.70;;;;;;5054635;28;20264;-76
2023/02/23 12:08:46;;;;;;;3.05;2.95;;;30.10;39.80;;;;;;5047023;28;20252;-76
2023/02/23 12:11:23;;;;;;;2.60;2.50;;;29.80;40.00;;;;;;5046397;28;20187;-75
2023/02/23 12:14:10;;;;;;;2.53;2.42;;;29.80;40.70;;;;;;5042112;28;20250;-75
2023/02/23 12:16:49;;;;;;;2.25;2.25;;;29.90;40.60;;;;;;5073588;28;20191;-75
2023/02/23 12:19:33;;;;;;;2.63;2.47;;;30.00;40.70;;;;;;5040568;28;20202;-75
2023/02/23 12:22:06;;;;;;;2.40;2.40;;;30.00;39.70;;;;;;5047394;28;20180;-75
2023/02/23 12:24:41;;;;;;;2.28;2.17;;;30.00;41.10;;;;;;5043116;28;20487;-75
2023/02/23 12:27:35;;;;;;;4.90;2.50;;;29.70;40.00;;;;;;5053713;28;20664;-75
2023/02/23 12:30:17;;;;;;;2.33;2.33;;;29.30;40.80;;;;;;5032597;28;20252;-75
2023/02/23 12:32:50;;;;;;;2.33;2.22;;;28.70;40.50;;;;;;5021974;28;21576;-75
2023/02/23 12:35:30;;;;;;;2.40;2.20;;;28.10;41.40;;;;;;5026096;28;20196;-75
2023/02/23 12:38:16;;;;;;;2.40;2.30;;;27.40;41.60;;;;;;5026692;28;20272;-74
2023/02/23 12:40:43;;;;;;;5.10;2.50;;;26.70;43.20;;;;;;5022541;28;20192;-74
2023/02/23 12:43:34;;;;;;;4.00;2.55;;;26.20;43.00;;;;;;5021880;28;20255;-75
2023/02/23 12:46:19;;;;;;;3.17;2.50;;;26.00;43.30;;;;;;5028855;28;20184;-74
2023/02/23 12:49:05;;;;;;;2.42;2.33;;;25.60;44.00;;;;;;5016831;28;20742;-74
2023/02/23 12:51:44;;;;;;;1.98;1.88;;;25.30;44.20;;;;;;5024857;28;20215;-74
2023/02/23 12:54:15;;;;;;;2.38;2.17;;;25.00;44.20;;;;;;5030546;28;20951;-75
2023/02/23 12:57:11;;;;;;;3.05;2.83;;;24.80;45.00;;;;;;5025715;28;20180;-74
2023/02/23 13:00:29;;;;;;;1.92;1.90;;;24.30;45.10;;;;;;5023036;28;20204;-74
2023/02/23 13:03:32;;;;;;;3.58;2.60;;;23.70;46.10;;;;;;4975992;28;20204;-74
2023/02/23 13:06:09;;;;;;;2.97;2.60;;;23.00;47.60;;;;;;4970842;28;21451;-75
2023/02/23 13:09:09;;;;;;;2.22;2.15;;;22.50;48.00;;;;;;5004321;28;20254;-76
2023/02/23 13:12:12;;;;;;;2.40;2.30;;;22.30;49.00;;;;;;5006511;28;20830;-75
2023/02/23 13:14:44;;;;;;;3.53;2.47;;;22.10;49.10;;;;;;4960572;28;20190;-75
2023/02/23 13:17:13;;;;;;;2.30;2.20;;;22.00;49.30;;;;;;4960723;28;20186;-75
2023/02/23 13:19:45;;;;;;;3.40;2.78;;;22.00;49.20;;;;;;4957962;28;20273;-75
2023/02/23 13:22:49;;;;;;;2.65;2.47;;;22.00;48.60;;;;;;4960533;28;20286;-75
2023/02/23 13:25:46;;;;;;;2.28;2.17;;;21.90;49.30;;;;;;4921757;29;20207;-75
2023/02/23 13:28:39;;;;;;;5.22;2.53;;;21.70;49.50;;;;;;4922572;29;20195;-75
2023/02/23 13:31:16;;;;;;;2.72;2.40;;;21.40;50.10;;;;;;4921582;29;20188;-75
2023/02/23 13:33:41;;;;;;;2.38;2.28;;;21.30;50.50;;;;;;4922722;29;20211;-75
2023/02/23 13:36:07;;;;;;;2.83;2.20;;;21.10;50.60;;;;;;4920628;29;20211;-76
2023/02/23 13:39:14;;;;;;;2.17;2.08;;;20.90;50.90;;;;;;4919948;29;20689;-75
2023/02/23 13:41:55;;;;;;;2.08;1.98;;;20.80;51.20;;;;;;4922196;29;20270;-75
2023/02/23 13:44:31;;;;;;;2.25;2.10;;;20.50;51.30;;;;;;4920641;29;20199;-75
2023/02/23 13:47:16;;;;;;;2.45;2.25;;;20.30;51.60;;;;;;4920987;29;20189;-75
2023/02/23 13:49:45;;;;;;;2.03;1.92;;;20.20;52.10;;;;;;4921169;29;20629;-75
2023/02/23 13:52:42;;;;;;;2.83;2.25;;;20.00;51.90;;;;;;4968042;28;20214;-75
2023/02/23 13:55:26;;;;;;;2.25;2.05;;;19.90;52.70;;;;;;4959493;28;20225;-75
2023/02/23 13:58:02;;;;;;;1.85;1.75;;;20.00;52.60;;;;;;4959882;28;20281;-75
2023/02/23 14:00:28;;;;;;;2.00;1.90;;;20.00;52.60;;;;;;4942804;28;20192;-75
2023/02/23 14:02:54;;;;;;;1.90;1.80;;;20.10;51.90;;;;;;5013553;28;20196;-75
2023/02/23 14:05:26;;;;;;;2.22;2.15;;;20.20;51.90;;;;;;5038183;28;20196;-75
2023/02/23 14:08:01;;;;;;;2.15;2.05;;;20.20;52.10;;;;;;5019850;28;20191;-75
2023/02/23 14:10:37;;;;;;;2.38;2.08;;;20.30;51.80;;;;;;5022234;28;20904;-75
2023/02/23 14:13:07;;;;;;;1.65;1.63;;;20.30;51.90;;;;;;5038925;28;20220;-75
2023/02/23 14:15:38;;;;;;;2.05;1.95;;;20.40;51.70;;;;;;5038751;28;20242;-74
2023/02/23 14:18:24;;;;;;;1.70;1.60;;;20.30;51.70;;;;;;5024615;28;20703;-75
2023/02/23 14:21:36;;;;;;;2.28;2.05;;;20.20;51.60;;;;;;5038265;28;20330;-75
2023/02/23 14:24:18;;;;;;;2.05;1.95;;;20.00;51.60;;;;;;5040762;28;20849;-75
2023/02/23 14:27:17;;;;;;;3.13;1.98;;;19.90;52.20;;;;;;5043206;28;20179;-75
2023/02/23 14:30:04;;;;;;;2.50;1.88;;;19.80;52.30;;;;;;5040854;28;20222;-75
2023/02/23 14:32:30;;;;;;;1.23;1.20;;;19.60;53.50;;;;;;5049510;28;20223;-76